Stanley, ID

10:46 MDT le 25 octobre 2014 (GMT -0600)
Stanley | Change Station
CLOSE
Current Station
Aéroport
Location: Stanley,
Altitude: 6496 ft
Stations météo à proximité
Avis météorologiques actifs: Special Statement

Alt. 6496 ft 44.17 °N, 114.93 °W | Updated 55 minutes ago

Partiellement nuageux
Partiellement nuageux
31 ° F
Paraît 31 ° F
N
0
Vent Variable Vent de Nord
Gusts 21 mph

Aujourd'hui
Haut(e) -- | Bas -- ° F
--% Risque de précip.
Hier
Haut(e) -- | Bas -- ° F
Precip. -- pouce
8:07 AM 6:39 PM
Lune montante, 3% visible
Pression 29.97 pouce
Visibilité -9999.0 Miles terrestres
Nuages
Point de rosée 28 ° F
Humidité 89%
Précipitations 0.00 pouce
Profondeur de la couche neigeuse 0 in
UV Non disponible.
Pollen 4.20 sur 12
Qualité de l'air Non disponible.
Flu Activity No Activity
METAR KSNT 251551Z AUTO 00000KT M01/M02 A3003 RMK AO1 SLP149 T10061022

More Conditions Fewer Conditions

Pression 29.97 pouce
Visibilité -9999.0 Miles terrestres
Nuages
Point de rosée 28 ° F
Humidité 89%
Précipitations 0.00 pouce
Profondeur de la couche neigeuse 0 in
UV Non disponible.
Pollen 4.20 sur 12
Qualité de l'air Non disponible.
Flu Activity No Activity
METAR KSNT 251551Z AUTO 00000KT M01/M02 A3003 RMK AO1 SLP149 T10061022

More Conditions Fewer Conditions

10-Day Weather Forecast

Almanac

Astronomie

Oct. 25, 2014 Lever Coucher
Temps réel 08:07 MDT 18:39 MDT
Crépuscule civil 07:37 MDT 19:09 MDT
Crépuscule nautique 07:03 MDT 19:42 MDT
Crépuscule astronomique 06:30 MDT 20:16 MDT
Lune 09:53 MDT 20:02 MDT
Durée de lumière visible 11h 31m
Longueur du jour
10h 31m
Tomorrow will be 2m 49s shorter.
Lune montante, 3% of the Moon is Illuminated
Aujourd'hui
Lune montante
Oct 30
Premier quartier
Nov 6
Pleine lune
Nov 14
Dernier quartier
Nov 22
Nouveau

Extrêmes aujourd'hui

State Highs State Lows

Community

WunderPhotos

Upload Photos

1,764,901 Photos téléchargées !

Nearby

Épaisseur de neige

Station Depth Altitude
Banner Summit 0 in 7040 ft
Galena 1 in 7440 ft
Galena Summit 0 in 8780 ft
Jackson Peak 0 in 7070 ft
Vienna Mine 0 in 8960 ft

Activité sismique

Ville Distance Mag. Time & Date
No recent earthquake activity has been reported nearby.
Minimum magnitude displayed is 2.5.

Températures des eaux côtières

Lieu Température
Aucun rapport de station

Stations météo à proximité